createdAt,value
2018-12-07T00:00:00.473Z,0
2018-12-07T00:01:00.255Z,0
2018-12-07T00:02:00.775Z,0
2018-12-07T00:03:00.286Z,0
2018-12-07T00:04:00.821Z,0
2018-12-07T00:05:00.852Z,0
2018-12-07T00:06:00.342Z,0
2018-12-07T00:07:00.641Z,0
2018-12-07T00:08:00.643Z,0
2018-12-07T00:09:00.930Z,0
2018-12-07T00:10:00.710Z,0
2018-12-07T00:11:00.801Z,0
2018-12-07T00:12:00.489Z,0
2018-12-07T00:13:00.561Z,0
2018-12-07T00:14:01.292Z,0
2018-12-07T00:15:00.800Z,0
2018-12-07T00:16:00.561Z,0
2018-12-07T00:17:00.834Z,0
2018-12-07T00:18:01.151Z,0
2018-12-07T00:19:01.156Z,0
2018-12-07T00:20:01.423Z,0
2018-12-07T00:21:00.946Z,0
2018-12-07T00:22:00.958Z,0
2018-12-07T00:23:00.979Z,0
2018-12-07T00:24:01.000Z,0
2018-12-07T00:25:01.018Z,0
2018-12-07T00:26:01.039Z,0
2018-12-07T00:27:01.063Z,0
2018-12-07T00:28:00.819Z,0
2018-12-07T00:29:01.354Z,0
2018-12-07T00:30:01.116Z,0
2018-12-07T00:31:01.414Z,0
2018-12-07T00:32:01.439Z,0
2018-12-07T00:33:01.448Z,0
2018-12-07T00:34:01.466Z,0
2018-12-07T00:35:01.240Z,0
2018-12-07T00:36:00.988Z,0
2018-12-07T00:37:01.783Z,0
2018-12-07T00:38:01.546Z,0
2018-12-07T00:39:01.317Z,0
2018-12-07T00:40:01.079Z,0
2018-12-07T00:41:01.627Z,0
2018-12-07T00:42:01.641Z,0
2018-12-07T00:43:01.142Z,0
2018-12-07T00:44:01.476Z,0
2018-12-07T00:45:01.704Z,0
2018-12-07T00:46:01.485Z,0
2018-12-07T00:47:01.474Z,0
2018-12-07T00:48:01.759Z,0
2018-12-07T00:49:01.524Z,0
2018-12-07T00:50:01.544Z,0
2018-12-07T00:51:01.312Z,0
2018-12-07T00:52:01.590Z,0
2018-12-07T00:53:01.602Z,0
2018-12-07T00:54:01.626Z,0
2018-12-07T00:55:01.659Z,0
2018-12-07T00:56:01.672Z,0
2018-12-07T00:57:01.718Z,0
2018-12-07T00:58:02.259Z,0
2018-12-07T00:59:02.272Z,0
2018-12-07T01:00:02.308Z,0
2018-12-07T01:01:01.522Z,0
2018-12-07T01:02:01.804Z,0
2018-12-07T01:03:01.830Z,0
2018-12-07T01:04:02.104Z,0
2018-12-07T01:05:01.881Z,0
2018-12-07T01:06:01.646Z,0
2018-12-07T01:07:02.168Z,0
2018-12-07T01:08:01.672Z,0
2018-12-07T01:09:02.297Z,0
2018-12-07T01:10:01.972Z,0
2018-12-07T01:11:02.523Z,0
2018-12-07T01:12:02.028Z,0
2018-12-07T01:13:02.032Z,0
2018-12-07T01:14:02.325Z,0
2018-12-07T01:15:02.345Z,0
2018-12-07T01:16:02.104Z,0
2018-12-07T01:17:01.880Z,0
2018-12-07T01:18:02.152Z,0
2018-12-07T01:19:02.501Z,0
2018-12-07T01:20:02.199Z,0
2018-12-07T01:21:01.956Z,0
2018-12-07T01:22:02.259Z,0
2018-12-07T01:23:02.271Z,0
2018-12-07T01:24:02.281Z,0
2018-12-07T01:25:02.566Z,0
2018-12-07T01:26:02.325Z,0
2018-12-07T01:27:02.600Z,0
2018-12-07T01:28:02.359Z,0
2018-12-07T01:29:02.645Z,0
2018-12-07T01:30:02.144Z,0
2018-12-07T01:31:02.498Z,0
2018-12-07T01:32:02.191Z,0
2018-12-07T01:33:02.466Z,0
2018-12-07T01:34:02.996Z,0
2018-12-07T01:35:02.515Z,0
2018-12-07T01:36:02.786Z,0
2018-12-07T01:37:02.805Z,0
2018-12-07T01:38:02.574Z,0
2018-12-07T01:39:02.597Z,0
2018-12-07T01:40:02.632Z,0
2018-12-07T01:41:02.893Z,0
2018-12-07T01:42:02.986Z,0
2018-12-07T01:43:02.698Z,0
2018-12-07T01:44:02.980Z,0
2018-12-07T01:45:02.973Z,0
2018-12-07T01:46:03.022Z,0
2018-12-07T01:47:02.520Z,0
2018-12-07T01:48:02.538Z,0
2018-12-07T01:49:03.342Z,0
2018-12-07T01:50:02.839Z,0
2018-12-07T01:51:02.629Z,0
2018-12-07T01:52:03.138Z,0
2018-12-07T01:53:03.161Z,0
2018-12-07T01:54:02.930Z,0
2018-12-07T01:55:02.944Z,0
2018-12-07T01:56:02.959Z,0
2018-12-07T01:57:03.240Z,0
2018-12-07T01:58:03.010Z,0
2018-12-07T01:59:03.023Z,0
2018-12-07T02:00:03.093Z,0
2018-12-07T02:01:03.351Z,0
2018-12-07T02:02:03.612Z,0
2018-12-07T02:03:02.855Z,0
2018-12-07T02:04:03.383Z,0
2018-12-07T02:05:03.151Z,0
2018-12-07T02:06:03.430Z,0
2018-12-07T02:07:03.742Z,0
2018-12-07T02:08:03.230Z,0
2018-12-07T02:09:03.280Z,0
2018-12-07T02:10:03.019Z,0
2018-12-07T02:11:03.300Z,0
2018-12-07T02:12:03.560Z,0
2018-12-07T02:13:03.080Z,0
2018-12-07T02:14:03.871Z,0
2018-12-07T02:15:03.366Z,0
2018-12-07T02:16:03.916Z,0
2018-12-07T02:17:03.413Z,0
2018-12-07T02:18:03.681Z,0
2018-12-07T02:19:03.469Z,0
2018-12-07T02:20:03.470Z,0
2018-12-07T02:21:03.514Z,0
2018-12-07T02:22:03.254Z,0
2018-12-07T02:23:03.539Z,0
2018-12-07T02:24:03.563Z,0
2018-12-07T02:25:03.835Z,0
2018-12-07T02:26:03.599Z,0
2018-12-07T02:27:05.438Z,0
2018-12-07T02:28:03.915Z,0
2018-12-07T02:29:03.674Z,0
2018-12-07T02:30:03.701Z,0
2018-12-07T02:31:03.497Z,0
2018-12-07T02:32:03.741Z,0
2018-12-07T02:33:04.285Z,0
2018-12-07T02:34:04.069Z,0
2018-12-07T02:35:03.805Z,0
2018-12-07T02:36:03.549Z,0
2018-12-07T02:37:03.845Z,0
2018-12-07T02:38:03.870Z,0
2018-12-07T02:39:03.882Z,0
2018-12-07T02:40:03.905Z,0
2018-12-07T02:41:04.192Z,0
2018-12-07T02:42:03.946Z,0
2018-12-07T02:43:04.228Z,0
2018-12-07T02:44:04.257Z,0
2018-12-07T02:45:04.269Z,0
2018-12-07T02:46:04.053Z,0
2018-12-07T02:47:04.300Z,0
2018-12-07T02:48:04.128Z,0
2018-12-07T02:49:04.102Z,0
2018-12-07T02:50:04.470Z,0
2018-12-07T02:51:04.139Z,0
2018-12-07T02:52:04.425Z,0
2018-12-07T02:53:04.189Z,0
2018-12-07T02:54:04.452Z,0
2018-12-07T02:55:04.501Z,0
2018-12-07T02:56:04.252Z,0
2018-12-07T02:57:04.261Z,0
2018-12-07T02:58:04.554Z,0
2018-12-07T02:59:04.059Z,0
2018-12-07T03:00:04.344Z,0
2018-12-07T03:01:04.343Z,0
2018-12-07T03:02:04.377Z,0
2018-12-07T03:03:04.409Z,0
2018-12-07T03:04:04.665Z,0
2018-12-07T03:05:04.979Z,0
2018-12-07T03:06:04.478Z,0
2018-12-07T03:07:04.224Z,0
2018-12-07T03:08:04.505Z,0
2018-12-07T03:09:04.259Z,0
2018-12-07T03:10:04.550Z,0
2018-12-07T03:11:04.571Z,0
2018-12-07T03:12:04.589Z,0
2018-12-07T03:13:04.873Z,0
2018-12-07T03:14:04.877Z,0
2018-12-07T03:15:04.387Z,0
2018-12-07T03:16:04.932Z,0
2018-12-07T03:17:04.965Z,0
2018-12-07T03:18:04.728Z,0
2018-12-07T03:19:04.993Z,0
2018-12-07T03:20:04.766Z,0
2018-12-07T03:21:05.028Z,0
2018-12-07T03:22:04.559Z,0
2018-12-07T03:23:05.160Z,0
2018-12-07T03:24:05.108Z,0
2018-12-07T03:25:05.123Z,0
2018-12-07T03:26:05.148Z,0
2018-12-07T03:27:04.914Z,0
2018-12-07T03:28:05.189Z,0
2018-12-07T03:29:04.688Z,0
2018-12-07T03:30:05.235Z,0
2018-12-07T03:31:05.288Z,0
2018-12-07T03:32:04.879Z,0
2018-12-07T03:33:05.308Z,0
2018-12-07T03:34:06.806Z,0
2018-12-07T03:35:05.070Z,0
2018-12-07T03:36:04.844Z,0
2018-12-07T03:37:05.142Z,0
2018-12-07T03:38:04.891Z,0
2018-12-07T03:39:04.903Z,0
2018-12-07T03:40:04.940Z,0
2018-12-07T03:41:05.447Z,0
2018-12-07T03:42:05.752Z,0
2018-12-07T03:43:05.493Z,0
2018-12-07T03:44:05.271Z,0
2018-12-07T03:45:05.539Z,0
2018-12-07T03:46:05.306Z,0
2018-12-07T03:47:05.591Z,0
2018-12-07T03:48:05.877Z,0
2018-12-07T03:49:05.643Z,0
2018-12-07T03:50:06.032Z,0
2018-12-07T03:51:05.945Z,0
2018-12-07T03:52:05.691Z,0
2018-12-07T03:53:05.185Z,0
2018-12-07T03:54:05.220Z,0
2018-12-07T03:55:05.768Z,0
2018-12-07T03:56:05.859Z,0
2018-12-07T03:57:05.280Z,0
2018-12-07T03:58:05.576Z,0
2018-12-07T03:59:05.833Z,0
2018-12-07T04:00:06.117Z,0
2018-12-07T04:01:05.683Z,0
2018-12-07T04:02:05.911Z,0
2018-12-07T04:03:05.936Z,0
2018-12-07T04:04:05.445Z,0
2018-12-07T04:05:05.724Z,0
2018-12-07T04:06:06.241Z,0
2018-12-07T04:07:06.263Z,0
2018-12-07T04:08:05.770Z,0
2018-12-07T04:09:06.060Z,0
2018-12-07T04:10:05.587Z,0
2018-12-07T04:11:06.109Z,0
2018-12-07T04:12:06.112Z,0
2018-12-07T04:13:05.642Z,0
2018-12-07T04:14:05.681Z,0
2018-12-07T04:15:05.935Z,0
2018-12-07T04:16:05.684Z,0
2018-12-07T04:17:05.970Z,0
2018-12-07T04:18:06.236Z,0
2018-12-07T04:19:06.257Z,0
2018-12-07T04:20:06.559Z,0
2018-12-07T04:21:06.329Z,0
2018-12-07T04:22:05.816Z,0
2018-12-07T04:23:06.343Z,0
2018-12-07T04:24:06.124Z,0
2018-12-07T04:25:06.138Z,0
2018-12-07T04:26:06.029Z,0
2018-12-07T04:27:06.172Z,0
2018-12-07T04:28:06.459Z,0
2018-12-07T04:29:06.226Z,0
2018-12-07T04:30:06.521Z,0
2018-12-07T04:31:06.006Z,0
2018-12-07T04:32:06.275Z,0
2018-12-07T04:33:06.304Z,0
2018-12-07T04:34:06.329Z,0
2018-12-07T04:35:06.350Z,0
2018-12-07T04:36:14.096Z,0
2018-12-07T04:37:06.921Z,0
2018-12-07T04:38:06.169Z,0
2018-12-07T04:39:06.435Z,0
2018-12-07T04:40:06.712Z,0
2018-12-07T04:41:06.481Z,0
2018-12-07T04:42:06.508Z,0
2018-12-07T04:43:06.510Z,0
2018-12-07T04:44:06.550Z,0
2018-12-07T04:45:06.299Z,0
2018-12-07T04:46:06.841Z,0
2018-12-07T04:47:06.872Z,0
2018-12-07T04:48:06.623Z,0
2018-12-07T04:49:06.645Z,0
2018-12-07T04:50:06.943Z,0
2018-12-07T04:51:06.423Z,0
2018-12-07T04:52:06.696Z,0
2018-12-07T04:53:06.978Z,0
2018-12-07T04:54:07.011Z,0
2018-12-07T04:55:06.760Z,0
2018-12-07T04:56:06.792Z,0
2018-12-07T04:57:06.842Z,0
2018-12-07T04:58:06.581Z,0
2018-12-07T04:59:07.399Z,0
2018-12-07T05:00:07.128Z,0
2018-12-07T05:01:07.152Z,0
2018-12-07T05:02:06.931Z,0
2018-12-07T05:03:06.931Z,0
2018-12-07T05:04:07.230Z,0
2018-12-07T05:05:06.985Z,0
2018-12-07T05:06:07.532Z,0
2018-12-07T05:07:07.027Z,0
2018-12-07T05:08:07.304Z,0
2018-12-07T05:09:07.333Z,0
2018-12-07T05:10:07.090Z,0
2018-12-07T05:11:07.394Z,0
2018-12-07T05:12:07.391Z,0
2018-12-07T05:13:07.183Z,0
2018-12-07T05:14:07.432Z,0
2018-12-07T05:15:07.706Z,0
2018-12-07T05:16:07.728Z,0
2018-12-07T05:17:07.248Z,0
2018-12-07T05:18:07.264Z,0
2018-12-07T05:19:07.279Z,0
2018-12-07T05:20:07.545Z,0
2018-12-07T05:21:07.577Z,0
2018-12-07T05:22:07.340Z,0
2018-12-07T05:23:07.608Z,0
2018-12-07T05:24:07.909Z,0
2018-12-07T05:25:07.395Z,0
2018-12-07T05:26:07.421Z,0
2018-12-07T05:27:07.442Z,0
2018-12-07T05:28:07.478Z,0
2018-12-07T05:29:07.498Z,0
2018-12-07T05:30:07.507Z,0
2018-12-07T05:31:08.123Z,0
2018-12-07T05:32:07.563Z,0
2018-12-07T05:33:07.572Z,0
2018-12-07T05:34:07.855Z,0
2018-12-07T05:35:08.121Z,0
2018-12-07T05:36:08.141Z,0
2018-12-07T05:37:07.664Z,0
2018-12-07T05:38:07.700Z,0
2018-12-07T05:39:07.942Z,0
2018-12-07T05:40:07.702Z,0
2018-12-07T05:41:07.990Z,0
2018-12-07T05:42:07.506Z,0
2018-12-07T05:43:07.789Z,0
2018-12-07T05:44:07.804Z,0
2018-12-07T05:45:07.927Z,0
2018-12-07T05:46:07.582Z,0
2018-12-07T05:47:07.609Z,0
2018-12-07T05:48:07.870Z,0
2018-12-07T05:49:08.172Z,0
2018-12-07T05:50:07.920Z,0
2018-12-07T05:51:07.693Z,0
2018-12-07T05:52:07.965Z,0
2018-12-07T05:53:08.005Z,0
2018-12-07T05:54:08.269Z,0
2018-12-07T05:55:08.096Z,0
2018-12-07T05:56:08.040Z,0
2018-12-07T05:57:08.067Z,0
2018-12-07T05:58:07.840Z,0
2018-12-07T05:59:08.381Z,0
2018-12-07T06:00:08.148Z,0
2018-12-07T06:01:07.897Z,0
2018-12-07T06:02:08.438Z,0
2018-12-07T06:03:08.467Z,0
2018-12-07T06:04:08.223Z,0
2018-12-07T06:05:08.234Z,0
2018-12-07T06:06:08.779Z,0
2018-12-07T06:07:08.273Z,0
2018-12-07T06:08:08.287Z,0
2018-12-07T06:09:08.658Z,0
2018-12-07T06:10:08.609Z,0
2018-12-07T06:11:08.092Z,0
2018-12-07T06:12:08.383Z,0
2018-12-07T06:13:08.159Z,0
2018-12-07T06:14:08.948Z,0
2018-12-07T06:15:08.730Z,0
2018-12-07T06:16:08.735Z,0
2018-12-07T06:17:08.755Z,0
2018-12-07T06:18:08.784Z,0
2018-12-07T06:19:08.789Z,0
2018-12-07T06:20:08.810Z,0
2018-12-07T06:21:08.305Z,0
2018-12-07T06:22:08.856Z,0
2018-12-07T06:23:08.609Z,0
2018-12-07T06:24:08.891Z,0
2018-12-07T06:25:08.668Z,0
2018-12-07T06:26:08.676Z,0
2018-12-07T06:27:10.798Z,0
2018-12-07T06:28:08.967Z,0
2018-12-07T06:29:08.997Z,0
2018-12-07T06:30:08.791Z,0
2018-12-07T06:31:08.777Z,0
2018-12-07T06:32:08.544Z,0
2018-12-07T06:33:08.845Z,0
2018-12-07T06:34:08.858Z,0
2018-12-07T06:35:08.865Z,0
2018-12-07T06:36:08.892Z,0
2018-12-07T06:37:09.169Z,0
2018-12-07T06:38:09.201Z,0
2018-12-07T06:39:09.214Z,0
2018-12-07T06:40:09.223Z,0
2018-12-07T06:41:09.242Z,0
2018-12-07T06:42:09.285Z,0
2018-12-07T06:43:09.296Z,0
2018-12-07T06:44:09.314Z,0
2018-12-07T06:45:09.080Z,0
2018-12-07T06:46:09.353Z,0
2018-12-07T06:47:09.120Z,0
2018-12-07T06:48:09.159Z,0
2018-12-07T06:49:09.161Z,0
2018-12-07T06:50:09.198Z,0
2018-12-07T06:51:09.221Z,0
2018-12-07T06:52:08.967Z,0
2018-12-07T06:53:09.258Z,0
2018-12-07T06:54:09.793Z,0
2018-12-07T06:55:09.563Z,0
2018-12-07T06:56:09.577Z,0
2018-12-07T06:57:09.082Z,0
2018-12-07T06:58:09.366Z,0
2018-12-07T06:59:09.635Z,0
2018-12-07T07:00:09.715Z,4
2018-12-07T07:01:09.675Z,4
2018-12-07T07:02:09.708Z,4
2018-12-07T07:03:09.198Z,0
2018-12-07T07:04:09.469Z,0
2018-12-07T07:05:09.255Z,4
2018-12-07T07:06:09.786Z,4
2018-12-07T07:07:09.719Z,4
2018-12-07T07:08:10.084Z,4
2018-12-07T07:09:09.847Z,8
2018-12-07T07:10:09.340Z,4
2018-12-07T07:11:09.366Z,8
2018-12-07T07:12:09.933Z,8
2018-12-07T07:13:09.929Z,8
2018-12-07T07:14:09.689Z,8
2018-12-07T07:15:09.706Z,8
2018-12-07T07:16:09.474Z,8
2018-12-07T07:17:10.285Z,12
2018-12-07T07:18:09.780Z,12
2018-12-07T07:19:09.789Z,12
2018-12-07T07:20:09.822Z,12
2018-12-07T07:21:10.360Z,16
2018-12-07T07:22:09.597Z,16
2018-12-07T07:23:09.891Z,16
2018-12-07T07:24:09.648Z,16
2018-12-07T07:25:09.668Z,20
2018-12-07T07:26:09.957Z,24
2018-12-07T07:27:09.963Z,20
2018-12-07T07:28:09.981Z,24
2018-12-07T07:29:09.735Z,24
2018-12-07T07:30:10.269Z,28
2018-12-07T07:31:10.329Z,32
2018-12-07T07:32:09.799Z,32
2018-12-07T07:33:10.348Z,36
2018-12-07T07:34:09.856Z,36
2018-12-07T07:35:10.400Z,36
2018-12-07T07:36:10.155Z,40
2018-12-07T07:37:10.194Z,44
2018-12-07T07:38:10.179Z,48
2018-12-07T07:39:09.950Z,52
2018-12-07T07:40:10.497Z,56
2018-12-07T07:41:10.497Z,60
2018-12-07T07:42:10.276Z,60
2018-12-07T07:43:10.634Z,64
2018-12-07T07:44:10.315Z,56
2018-12-07T07:45:10.616Z,60
2018-12-07T07:46:10.354Z,60
2018-12-07T07:47:10.648Z,64
2018-12-07T07:48:10.402Z,60
2018-12-07T07:49:10.175Z,60
2018-12-07T07:50:10.434Z,60
2018-12-07T07:51:10.720Z,60
2018-12-07T07:52:10.747Z,60
2018-12-07T07:53:10.752Z,56
2018-12-07T07:54:10.533Z,60
2018-12-07T07:55:10.547Z,64
2018-12-07T07:56:17.707Z,68
2018-12-07T07:57:10.679Z,72
2018-12-07T07:58:10.356Z,76
2018-12-07T07:59:10.629Z,76
2018-12-07T08:00:10.385Z,80
2018-12-07T08:01:11.192Z,84
2018-12-07T08:02:10.680Z,80
2018-12-07T08:03:10.710Z,84
2018-12-07T08:04:10.741Z,92
2018-12-07T08:05:10.772Z,92
2018-12-07T08:06:10.792Z,100
2018-12-07T08:07:10.814Z,108
2018-12-07T08:08:10.819Z,108
2018-12-07T08:09:10.578Z,112
2018-12-07T08:10:11.141Z,116
2018-12-07T08:11:10.871Z,128
2018-12-07T08:12:11.203Z,132
2018-12-07T08:13:11.188Z,128
2018-12-07T08:14:10.960Z,128
2018-12-07T08:15:10.983Z,124
2018-12-07T08:16:10.991Z,132
2018-12-07T08:17:11.262Z,152
2018-12-07T08:18:11.272Z,164
2018-12-07T08:19:10.787Z,160
2018-12-07T08:20:10.810Z,168
2018-12-07T08:21:11.354Z,164
2018-12-07T08:22:11.119Z,168
2018-12-07T08:23:17.364Z,168
2018-12-07T08:24:11.171Z,172
2018-12-07T08:25:10.910Z,188
2018-12-07T08:26:11.441Z,192
2018-12-07T08:27:11.740Z,228
2018-12-07T08:28:11.497Z,260
2018-12-07T08:29:11.305Z,300
2018-12-07T08:30:11.027Z,320
2018-12-07T08:31:11.034Z,356
2018-12-07T08:32:11.837Z,364
2018-12-07T08:33:11.599Z,344
2018-12-07T08:34:11.107Z,372
2018-12-07T08:35:11.652Z,380
2018-12-07T08:36:11.158Z,404
2018-12-07T08:37:11.421Z,400
2018-12-07T08:38:11.710Z,404
2018-12-07T08:39:11.721Z,400
2018-12-07T08:40:11.501Z,396
2018-12-07T08:41:11.512Z,360
2018-12-07T08:42:13.445Z,344
2018-12-07T08:43:11.821Z,324
2018-12-07T08:44:11.610Z,296
2018-12-07T08:45:11.610Z,264
2018-12-07T08:46:11.630Z,248
2018-12-07T08:47:11.914Z,260
2018-12-07T08:48:11.405Z,284
2018-12-07T08:49:11.675Z,288
2018-12-07T08:50:11.970Z,300
2018-12-07T08:51:11.722Z,304
2018-12-07T08:52:11.732Z,296
2018-12-07T08:53:11.501Z,284
2018-12-07T08:54:11.782Z,284
2018-12-07T08:55:11.805Z,296
2018-12-07T08:56:11.566Z,304
2018-12-07T08:57:11.601Z,320
2018-12-07T08:58:11.603Z,312
2018-12-07T08:59:11.888Z,340
2018-12-07T09:00:12.165Z,388
2018-12-07T09:01:12.192Z,412
2018-12-07T09:02:11.709Z,416
2018-12-07T09:03:12.229Z,384
2018-12-07T09:04:12.004Z,352
2018-12-07T09:05:12.300Z,384
2018-12-07T09:06:12.567Z,364
2018-12-07T09:07:12.061Z,352
2018-12-07T09:08:19.682Z,312
2018-12-07T09:09:12.116Z,352
2018-12-07T09:10:12.636Z,360
2018-12-07T09:11:12.416Z,372
2018-12-07T09:12:12.407Z,372
2018-12-07T09:13:12.175Z,372
2018-12-07T09:14:12.205Z,352
2018-12-07T09:15:12.226Z,340
2018-12-07T09:16:12.002Z,336
2018-12-07T09:17:12.348Z,348
2018-12-07T09:18:12.643Z,328
2018-12-07T09:19:12.572Z,316
2018-12-07T09:20:12.334Z,340
2018-12-07T09:21:12.853Z,296
2018-12-07T09:22:12.372Z,288
2018-12-07T09:23:12.655Z,336
2018-12-07T09:24:12.691Z,328
2018-12-07T09:25:12.709Z,308
2018-12-07T09:26:12.205Z,308
2018-12-07T09:27:12.478Z,304
2018-12-07T09:28:12.748Z,288
2018-12-07T09:29:12.772Z,276
2018-12-07T09:30:12.578Z,276
2018-12-07T09:31:12.315Z,276
2018-12-07T09:32:12.595Z,272
2018-12-07T09:33:12.890Z,264
2018-12-07T09:34:12.870Z,264
2018-12-07T09:35:12.933Z,264
2018-12-07T09:36:12.664Z,276
2018-12-07T09:37:12.701Z,284
2018-12-07T09:38:19.913Z,272
2018-12-07T09:39:12.718Z,268
2018-12-07T09:40:13.041Z,252
2018-12-07T09:41:13.292Z,240
2018-12-07T09:42:12.786Z,260
2018-12-07T09:43:12.802Z,272
2018-12-07T09:44:12.574Z,288
2018-12-07T09:45:13.365Z,292
2018-12-07T09:46:12.874Z,280
2018-12-07T09:47:12.632Z,284
2018-12-07T09:48:12.668Z,288
2018-12-07T09:49:13.195Z,316
2018-12-07T09:50:12.960Z,328
2018-12-07T09:51:12.719Z,332
2018-12-07T09:52:13.264Z,336
2018-12-07T09:53:13.013Z,356
2018-12-07T09:54:12.776Z,376
2018-12-07T09:55:13.070Z,368
2018-12-07T09:56:13.337Z,420
2018-12-07T09:57:13.357Z,412
2018-12-07T09:58:13.134Z,424
2018-12-07T09:59:13.667Z,392
2018-12-07T10:00:13.189Z,344
2018-12-07T10:01:12.946Z,384
2018-12-07T10:02:13.464Z,392
2018-12-07T10:03:13.483Z,384
2018-12-07T10:04:13.520Z,400
2018-12-07T10:05:13.843Z,404
2018-12-07T10:06:13.049Z,416
2018-12-07T10:07:13.317Z,436
2018-12-07T10:08:13.593Z,476
2018-12-07T10:09:13.619Z,492
2018-12-07T10:10:13.671Z,476
2018-12-07T10:11:13.675Z,496
2018-12-07T10:12:13.159Z,528
2018-12-07T10:13:15.167Z,592
2018-12-07T10:14:13.475Z,604
2018-12-07T10:15:13.480Z,588
2018-12-07T10:16:13.503Z,648
2018-12-07T10:17:13.543Z,668
2018-12-07T10:18:13.815Z,660
2018-12-07T10:19:14.097Z,652
2018-12-07T10:20:13.843Z,668
2018-12-07T10:21:13.355Z,676
2018-12-07T10:22:13.380Z,644
2018-12-07T10:23:13.661Z,604
2018-12-07T10:24:13.419Z,608
2018-12-07T10:25:13.972Z,628
2018-12-07T10:26:13.976Z,648
2018-12-07T10:27:13.997Z,620
2018-12-07T10:28:14.035Z,592
2018-12-07T10:29:14.043Z,604
2018-12-07T10:30:13.822Z,576
2018-12-07T10:31:13.814Z,584
2018-12-07T10:32:13.582Z,564
2018-12-07T10:33:13.869Z,528
2018-12-07T10:34:13.640Z,496
2018-12-07T10:35:13.723Z,464
2018-12-07T10:36:14.190Z,460
2018-12-07T10:37:13.944Z,460
2018-12-07T10:38:13.961Z,468
2018-12-07T10:39:14.256Z,476
2018-12-07T10:40:14.274Z,480
2018-12-07T10:41:14.028Z,488
2018-12-07T10:42:14.317Z,512
2018-12-07T10:43:14.082Z,496
2018-12-07T10:44:14.107Z,520
2018-12-07T10:45:14.113Z,544
2018-12-07T10:46:13.882Z,468
2018-12-07T10:47:14.149Z,488
2018-12-07T10:48:13.924Z,488
2018-12-07T10:49:14.712Z,524
2018-12-07T10:50:14.222Z,508
2018-12-07T10:51:15.198Z,504
2018-12-07T10:52:14.263Z,496
2018-12-07T10:53:14.560Z,448
2018-12-07T10:54:14.571Z,436
2018-12-07T10:55:14.931Z,432
2018-12-07T10:56:14.360Z,420
2018-12-07T10:57:14.363Z,412
2018-12-07T10:58:14.670Z,436
2018-12-07T10:59:14.675Z,420
2018-12-07T11:00:14.700Z,512
2018-12-07T11:01:14.286Z,460
2018-12-07T11:02:14.216Z,436
2018-12-07T11:03:15.008Z,404
2018-12-07T11:04:14.514Z,448
2018-12-07T11:05:14.542Z,428
2018-12-07T11:06:14.811Z,388
2018-12-07T11:07:14.591Z,416
2018-12-07T11:08:14.858Z,376
2018-12-07T11:09:15.135Z,448
2018-12-07T11:10:14.636Z,420
2018-12-07T11:11:14.916Z,460
2018-12-07T11:12:14.679Z,436
2018-12-07T11:13:14.700Z,520
2018-12-07T11:14:14.717Z,480
2018-12-07T11:15:14.541Z,612
2018-12-07T11:16:14.774Z,648
2018-12-07T11:17:14.782Z,684
2018-12-07T11:18:15.103Z,768
2018-12-07T11:19:14.568Z,728
2018-12-07T11:20:14.605Z,704
2018-12-07T11:21:14.630Z,656
2018-12-07T11:22:15.156Z,592
2018-12-07T11:23:14.666Z,604
2018-12-07T11:24:14.942Z,592
2018-12-07T11:25:15.203Z,564
2018-12-07T11:26:15.251Z,516
2018-12-07T11:27:15.264Z,560
2018-12-07T11:28:15.287Z,652
2018-12-07T11:29:15.312Z,628
2018-12-07T11:30:14.825Z,636
2018-12-07T11:31:14.823Z,760
2018-12-07T11:32:15.102Z,768
2018-12-07T11:33:15.125Z,668
2018-12-07T11:34:15.416Z,696
2018-12-07T11:35:15.177Z,712
2018-12-07T11:36:14.967Z,792
2018-12-07T11:37:15.210Z,784
2018-12-07T11:38:15.234Z,692
2018-12-07T11:39:17.274Z,628
2018-12-07T11:40:15.545Z,712
2018-12-07T11:41:15.291Z,768
2018-12-07T11:42:15.052Z,696
2018-12-07T11:43:15.086Z,804
2018-12-07T11:44:15.621Z,676
2018-12-07T11:45:15.398Z,680
2018-12-07T11:46:15.932Z,644
2018-12-07T11:47:15.171Z,588
2018-12-07T11:48:15.717Z,516
2018-12-07T11:49:15.460Z,456
2018-12-07T11:50:15.755Z,468
2018-12-07T11:51:15.799Z,480
2018-12-07T11:52:15.787Z,384
2018-12-07T11:53:15.559Z,504
2018-12-07T11:54:15.584Z,432
2018-12-07T11:55:15.844Z,464
2018-12-07T11:56:15.869Z,472
2018-12-07T11:57:15.641Z,420
2018-12-07T11:58:15.664Z,496
2018-12-07T11:59:15.416Z,476
2018-12-07T12:00:15.954Z,484
2018-12-07T12:01:15.719Z,484
2018-12-07T12:02:15.791Z,456
2018-12-07T12:03:15.513Z,444
2018-12-07T12:04:16.054Z,416
2018-12-07T12:05:16.062Z,448
2018-12-07T12:06:16.084Z,448
2018-12-07T12:07:16.361Z,432
2018-12-07T12:08:15.866Z,388
2018-12-07T12:09:15.628Z,452
2018-12-07T12:10:15.693Z,372
2018-12-07T12:11:15.946Z,408
2018-12-07T12:12:15.699Z,424
2018-12-07T12:13:15.971Z,360
2018-12-07T12:14:16.251Z,348
2018-12-07T12:15:16.026Z,352
2018-12-07T12:16:16.643Z,352
2018-12-07T12:17:16.589Z,388
2018-12-07T12:18:16.081Z,364
2018-12-07T12:19:15.842Z,348
2018-12-07T12:20:15.864Z,368
2018-12-07T12:21:16.141Z,336
2018-12-07T12:22:16.428Z,348
2018-12-07T12:23:15.935Z,328
2018-12-07T12:24:16.212Z,292
2018-12-07T12:25:15.964Z,280
2018-12-07T12:26:15.995Z,308
2018-12-07T12:27:16.019Z,376
2018-12-07T12:28:16.294Z,388
2018-12-07T12:29:16.304Z,344
2018-12-07T12:30:17.874Z,276
2018-12-07T12:31:16.105Z,260
2018-12-07T12:32:16.389Z,248
2018-12-07T12:33:16.143Z,280
2018-12-07T12:34:16.681Z,256
2018-12-07T12:35:16.955Z,280
2018-12-07T12:36:24.067Z,304
2018-12-07T12:37:16.763Z,304
2018-12-07T12:38:16.241Z,260
2018-12-07T12:39:16.524Z,240
2018-12-07T12:40:16.544Z,272
2018-12-07T12:41:16.559Z,260
2018-12-07T12:42:16.600Z,232
2018-12-07T12:43:16.404Z,240
2018-12-07T12:44:16.365Z,268
2018-12-07T12:45:16.402Z,260
2018-12-07T12:46:17.189Z,260
2018-12-07T12:47:16.685Z,292
2018-12-07T12:48:16.997Z,300
2018-12-07T12:49:16.738Z,320
2018-12-07T12:50:17.272Z,364
2018-12-07T12:51:16.784Z,392
2018-12-07T12:52:16.791Z,364
2018-12-07T12:53:17.091Z,400
2018-12-07T12:54:17.348Z,448
2018-12-07T12:55:16.882Z,444
2018-12-07T12:56:16.875Z,416
2018-12-07T12:57:16.906Z,508
2018-12-07T12:58:16.939Z,628
2018-12-07T12:59:16.947Z,692
2018-12-07T13:00:16.982Z,640
2018-12-07T13:01:16.984Z,584
2018-12-07T13:02:17.527Z,528
2018-12-07T13:03:17.282Z,632
2018-12-07T13:04:16.797Z,740
2018-12-07T13:05:17.326Z,968
2018-12-07T13:06:17.112Z,820
2018-12-07T13:07:17.389Z,832
2018-12-07T13:08:17.129Z,856
2018-12-07T13:09:17.415Z,872
2018-12-07T13:10:17.181Z,820
2018-12-07T13:11:16.939Z,808
2018-12-07T13:12:17.484Z,808
2018-12-07T13:13:16.991Z,788
2018-12-07T13:14:17.267Z,836
2018-12-07T13:15:17.566Z,856
2018-12-07T13:16:17.301Z,824
2018-12-07T13:17:17.136Z,928
2018-12-07T13:18:17.616Z,832
2018-12-07T13:19:17.371Z,828
2018-12-07T13:20:17.642Z,808
2018-12-07T13:21:17.496Z,816
2018-12-07T13:22:17.174Z,832
2018-12-07T13:23:17.190Z,780
2018-12-07T13:24:17.471Z,740
2018-12-07T13:25:17.513Z,720
2018-12-07T13:26:17.780Z,700
2018-12-07T13:27:17.567Z,644
2018-12-07T13:28:17.814Z,656
2018-12-07T13:29:17.337Z,660
2018-12-07T13:30:18.156Z,704
2018-12-07T13:31:17.873Z,732
2018-12-07T13:32:17.652Z,676
2018-12-07T13:33:17.669Z,656
2018-12-07T13:34:17.688Z,696
2018-12-07T13:35:17.710Z,768
2018-12-07T13:36:18.002Z,808
2018-12-07T13:37:18.019Z,800
2018-12-07T13:38:18.278Z,744
2018-12-07T13:39:17.537Z,724
2018-12-07T13:40:18.640Z,712
2018-12-07T13:41:18.644Z,760
2018-12-07T13:42:17.692Z,728
2018-12-07T13:43:17.866Z,732
2018-12-07T13:44:18.040Z,696
2018-12-07T13:45:18.853Z,640
2018-12-07T13:46:18.748Z,496
2018-12-07T13:47:18.591Z,520
2018-12-07T13:48:19.360Z,536
2018-12-07T13:49:18.823Z,460
2018-12-07T13:50:19.117Z,516
2018-12-07T13:51:18.343Z,476
2018-12-07T13:52:18.734Z,472
2018-12-07T13:53:18.703Z,400
2018-12-07T13:54:19.075Z,348
2018-12-07T13:55:19.123Z,328
2018-12-07T13:56:23.360Z,324
2018-12-07T13:57:18.429Z,424
2018-12-07T13:58:18.999Z,464
2018-12-07T13:59:18.532Z,380
2018-12-07T14:00:18.222Z,344
2018-12-07T14:01:18.727Z,316
2018-12-07T14:02:19.115Z,272
2018-12-07T14:03:18.451Z,248
2018-12-07T14:04:18.781Z,272
2018-12-07T14:05:18.851Z,280
2018-12-07T14:06:18.746Z,288
2018-12-07T14:07:18.896Z,340
2018-12-07T14:08:18.847Z,344
2018-12-07T14:09:18.487Z,340
2018-12-07T14:10:19.068Z,360
2018-12-07T14:11:18.986Z,316
2018-12-07T14:12:18.795Z,288
2018-12-07T14:13:19.589Z,308
2018-12-07T14:14:19.241Z,328
2018-12-07T14:15:18.808Z,236
2018-12-07T14:16:18.641Z,196
2018-12-07T14:17:20.630Z,152